Austin Reinauer — WCX8055 — position and weather

sailwx.info

Track history (hours):
 
Tides and Currents Weather Stations Pressure Air Temp Water Temp Dewpoint Dewpoint Depression Visibility Wind Speed Wind Dir Waves Ship Positions

Austin Reinauer

Owner: REINAUER TRANSPORTATION CO. LLC, STATEN ISLAND, NY. More information available from US FCC via Universal Licensing System and Coast Guard Vessel Documentation Center.

Last reported at 2017-Nov-17 17:06 UTC. Time now 2017-Nov-18 01:07 UTC.
Position N 41°40' W 071°12'.

Length 33 m; draft 6.7 m.

Type: . MMSI: 366739920.

Date/timePositionNaut miles runAvg speedWind from/ knotsBaromVisibWave heightAir tempDewpointWater temp
2017-Nov-17 17:06N 41°40' W 071°12'0 0.0
2017-Nov-17 16:59N 41°40' W 071°12'0 0.0
2017-Nov-17 16:30N 41°40' W 071°12'0 0.0
2017-Nov-17 16:00N 41°40' W 071°12'0 0.0
2017-Nov-17 15:30N 41°40' W 071°12'0 0.0
2017-Nov-17 15:00N 41°40' W 071°12'0 0.0
2017-Nov-17 14:30N 41°40' W 071°12'0 0.0
2017-Nov-17 13:59N 41°40' W 071°12'0 0.0
2017-Nov-17 13:30N 41°40' W 071°12'0 0.0
2017-Nov-17 13:00N 41°40' W 071°12'0 0.0
2017-Nov-17 12:30N 41°40' W 071°12'0 0.0
2017-Nov-17 12:00N 41°40' W 071°12'0 0.0
2017-Nov-17 11:30N 41°40' W 071°12'0 0.0
2017-Nov-17 11:00N 41°40' W 071°12'1 0.1
2017-Nov-17 04:22N 41°40' W 071°13'46 6.7
2017-Nov-16 21:31N 41°14' W 072°04'0 9.2
2017-Nov-16 21:29N 41°14' W 072°05'4 9.1
2017-Nov-16 21:00N 41°14' W 072°10'510.1
2017-Nov-16 20:30N 41°12' W 072°17'510.5
2017-Nov-16 20:00N 41°11' W 072°23'510.3
2017-Nov-16 19:30N 41°09' W 072°30'56 9.3
2017-Nov-16 13:29N 40°54' W 073°41'4 8.4
2017-Nov-16 13:00N 40°51' W 073°45'4 7.7
2017-Nov-16 12:30N 40°48' W 073°48'4 8.7
2017-Nov-16 12:00N 40°48' W 073°54'5 9.8
2017-Nov-16 11:30N 40°45' W 073°58'4 8.1
2017-Nov-16 11:00N 40°42' W 074°02'3 6.8
2017-Nov-16 10:30N 40°39' W 074°05'3 5.4
2017-Nov-16 10:00N 40°39' W 074°08'2 3.0
2017-Nov-16 09:30N 40°39' W 074°10'3 5.9
2017-Nov-16 09:00N 40°36' W 074°12'4 6.6
2017-Nov-16 08:24N 40°33' W 074°15'0 0.9
2017-Nov-16 07:54N 40°33' W 074°15'0 0.6
2017-Nov-16 07:28N 40°33' W 074°15'0 0.0
2017-Nov-16 01:21N 40°33' W 074°15'0 0.0
2017-Nov-16 01:00N 40°33' W 074°15'0 0.0
2017-Nov-16 00:30N 40°33' W 074°15'0 0.0
2017-Nov-15 23:57N 40°33' W 074°15'2 3.7
2017-Nov-15 23:30N 40°34' W 074°13'4 8.9
2017-Nov-15 23:00N 40°38' W 074°12'3 1.6
2017-Nov-15 20:56N 40°38' W 074°08'0 0.0
2017-Nov-15 20:20N 40°38' W 074°08'0 0.0
2017-Nov-15 19:59N 40°38' W 074°08'0 0.0
2017-Nov-15 19:26N 40°38' W 074°08'0 0.1
2017-Nov-15 18:59N 40°38' W 074°08'0 0.1
2017-Nov-15 18:11N 40°38' W 074°08'0 1.0
2017-Nov-15 18:00N 40°39' W 074°08'2 3.3
2017-Nov-15 17:30N 40°39' W 074°10'3 6.8
2017-Nov-15 17:00N 40°36' W 074°12'4 0.9
2017-Nov-15 12:54N 40°33' W 074°15'0 0.1
2017-Nov-15 12:28N 40°33' W 074°15'2 4.6
2017-Nov-15 12:00N 40°34' W 074°13'4 7.6
2017-Nov-15 11:30N 40°38' W 074°12'4 7.6
2017-Nov-15 11:01N 40°39' W 074°07'4 8.6
2017-Nov-15 10:30N 40°41' W 074°02'3 6.9
2017-Nov-15 10:01N 40°43' W 073°58'3 6.7
2017-Nov-15 09:30N 40°46' W 073°57'3 5.3
2017-Nov-15 09:00N 40°48' W 073°54'4 7.6
2017-Nov-15 08:30N 40°48' W 073°49'4 7.2
2017-Nov-15 07:58N 40°51' W 073°46'  
2017-Nov-13 00:58N 41°12' W 072°53'37 2.9
2017-Nov-12 12:16N 40°55' W 073°37'3 8.4
2017-Nov-12 11:58N 40°54' W 073°40'4 8.2
2017-Nov-12 11:30N 40°52' W 073°44'4 8.0
2017-Nov-12 11:00N 40°49' W 073°47'3 6.0
2017-Nov-12 10:30N 40°48' W 073°51'3 6.7
2017-Nov-12 10:00N 40°47' W 073°55'4 7.3
2017-Nov-12 09:31N 40°45' W 073°58'4 7.6
2017-Nov-12 09:00N 40°41' W 074°01'4 8.2
2017-Nov-12 08:30N 40°39' W 074°05'1 2.8
2017-Nov-12 08:01N 40°39' W 074°07'0 0.0
2017-Nov-12 07:30N 40°39' W 074°07'0 0.0
2017-Nov-12 07:01N 40°39' W 074°07'0 0.0
2017-Nov-12 06:30N 40°39' W 074°07'0 0.0
2017-Nov-12 06:01N 40°39' W 074°07'0 0.0
2017-Nov-12 05:30N 40°39' W 074°07'0 0.0
2017-Nov-12 05:00N 40°39' W 074°07'0 0.0
2017-Nov-12 04:30N 40°39' W 074°07'0 0.0
2017-Nov-12 04:00N 40°39' W 074°07'0 0.0
2017-Nov-12 03:30N 40°39' W 074°07'0 0.0
2017-Nov-12 03:00N 40°39' W 074°07'0 0.0
2017-Nov-12 02:30N 40°39' W 074°07'0 0.0
2017-Nov-12 02:00N 40°39' W 074°07'0 0.0
2017-Nov-12 01:30N 40°39' W 074°07'0 0.0
2017-Nov-12 01:00N 40°39' W 074°07'0 0.0
2017-Nov-12 00:30N 40°39' W 074°07'0 0.0
2017-Nov-12 00:01N 40°39' W 074°07'0 0.0
2017-Nov-11 23:30N 40°39' W 074°07'0 0.0
2017-Nov-11 23:00N 40°39' W 074°07'0 0.0
2017-Nov-11 22:30N 40°39' W 074°07'0 0.0
2017-Nov-11 22:00N 40°39' W 074°07'0 0.0
2017-Nov-11 21:30N 40°39' W 074°07'0 0.0
2017-Nov-11 21:00N 40°39' W 074°07'0 0.0
2017-Nov-11 20:30N 40°39' W 074°07'0 0.0
2017-Nov-11 20:01N 40°39' W 074°07'0 0.0
2017-Nov-11 19:30N 40°39' W 074°07'0 0.0
2017-Nov-11 19:00N 40°39' W 074°07'0 0.0
2017-Nov-11 18:30N 40°39' W 074°07'0 0.0
2017-Nov-11 18:00N 40°39' W 074°07'0 0.0
2017-Nov-11 17:30N 40°39' W 074°07'0 0.0
2017-Nov-11 17:00N 40°39' W 074°07'1 1.4
2017-Nov-11 16:30N 40°38' W 074°08'2 4.9
2017-Nov-11 16:00N 40°39' W 074°05'3 5.9
2017-Nov-11 15:30N 40°40' W 074°01'0 0.0
2017-Nov-11 15:00N 40°40' W 074°01'0 0.0
2017-Nov-11 14:31N 40°40' W 074°01'0 0.0
2017-Nov-11 14:01N 40°40' W 074°01'0 0.0
2017-Nov-11 13:30N 40°40' W 074°01'0 0.0
2017-Nov-11 13:01N 40°40' W 074°01'0 0.0
2017-Nov-11 12:31N 40°40' W 074°01'0 0.0
2017-Nov-11 12:00N 40°40' W 074°01'0 0.0
2017-Nov-11 11:30N 40°40' W 074°01'3 5.9
2017-Nov-11 11:01N 40°39' W 074°05'2 3.7
2017-Nov-11 10:30N 40°39' W 074°07'0 0.0
2017-Nov-11 10:01N 40°39' W 074°07'0 0.0
2017-Nov-11 09:30N 40°39' W 074°07'0 0.0
2017-Nov-11 09:00N 40°39' W 074°07'0 0.0
2017-Nov-11 08:30N 40°39' W 074°07'0 0.0
2017-Nov-11 08:00N 40°39' W 074°07'0 0.0
2017-Nov-11 07:30N 40°39' W 074°07'0 0.0
2017-Nov-11 07:00N 40°39' W 074°07'0 0.0
2017-Nov-11 06:30N 40°39' W 074°07'0 0.0
2017-Nov-11 06:00N 40°39' W 074°07'0 0.0
2017-Nov-11 05:31N 40°39' W 074°07'0 0.0
2017-Nov-11 05:00N 40°39' W 074°07'1 1.3
2017-Nov-11 04:30N 40°38' W 074°08'0 0.0
2017-Nov-11 04:00N 40°38' W 074°08'0 0.0
2017-Nov-11 03:30N 40°38' W 074°08'0 0.0
2017-Nov-11 03:00N 40°38' W 074°08'0 0.0
2017-Nov-11 02:30N 40°38' W 074°08'1 1.4
2017-Nov-11 02:01N 40°39' W 074°07'0 0.0
2017-Nov-11 01:31N 40°39' W 074°07'0 0.0
2017-Nov-11 01:00N 40°39' W 074°07'0 0.7
2017-Nov-11 00:30N 40°39' W 074°07'3 5.2
2017-Nov-11 00:00N 40°38' W 074°03'1 1.6
2017-Nov-10 23:30N 40°39' W 074°02'3 5.6
2017-Nov-10 23:01N 40°41' W 074°01'5 9.7
2017-Nov-10 22:30N 40°45' W 073°58'5 9.4
2017-Nov-10 22:00N 40°48' W 073°52'4 8.5
2017-Nov-10 21:30N 40°49' W 073°47'10 0.3
2017-Nov-09 08:18N 40°55' W 073°37'3 8.2
2017-Nov-09 07:57N 40°54' W 073°41'4 8.1
2017-Nov-09 07:30N 40°52' W 073°45'4 7.4
2017-Nov-09 06:58N 40°48' W 073°47'4 7.6
2017-Nov-09 06:30N 40°48' W 073°52'4 7.5
2017-Nov-09 06:00N 40°47' W 073°56'4 9.0
2017-Nov-09 05:30N 40°43' W 073°59'4 8.6
2017-Nov-09 05:00N 40°40' W 074°03'1 2.9
2017-Nov-09 04:30N 40°38' W 074°03'0 0.3
2017-Nov-09 04:00N 40°38' W 074°03'0 0.7
2017-Nov-09 03:30N 40°39' W 074°03'2 4.3
2017-Nov-09 03:00N 40°39' W 074°06'2 4.5
2017-Nov-09 02:30N 40°39' W 074°08'2 4.3
2017-Nov-09 02:00N 40°39' W 074°11'3 5.2
2017-Nov-09 01:30N 40°36' W 074°12'4 5.2
2017-Nov-09 00:43N 40°33' W 074°15'0 1.0
2017-Nov-09 00:30N 40°33' W 074°15'0 0.0
2017-Nov-09 00:00N 40°33' W 074°15'0 0.0
2017-Nov-08 21:24N 40°33' W 074°15'0 0.1
2017-Nov-08 20:56N 40°33' W 074°15'0 0.1
2017-Nov-08 18:44N 40°33' W 074°15'0 0.0
2017-Nov-08 18:26N 40°33' W 074°15'0 0.2
2017-Nov-08 16:58N 40°33' W 074°15'0 0.0
2017-Nov-08 14:24N 40°33' W 074°15'0 0.0
2017-Nov-08 06:27N 40°33' W 074°15'0 0.1
2017-Nov-08 05:59N 40°33' W 074°15'0 0.1
2017-Nov-08 05:12N 40°33' W 074°15'0 0.3
2017-Nov-08 05:00N 40°33' W 074°15'2 3.4
2017-Nov-08 04:30N 40°34' W 074°13'4 7.3
2017-Nov-08 04:00N 40°37' W 074°12'1 2.7
2017-Nov-08 03:30N 40°38' W 074°12'0 0.0
2017-Nov-08 03:00N 40°38' W 074°12'0 0.0
2017-Nov-08 02:30N 40°38' W 074°12'0 0.0
2017-Nov-08 02:00N 40°38' W 074°12'0 0.0
2017-Nov-08 01:30N 40°38' W 074°12'0 0.0
2017-Nov-08 01:00N 40°38' W 074°12'0 0.0
2017-Nov-08 00:30N 40°38' W 074°12'0 0.0
2017-Nov-08 00:00N 40°38' W 074°12'0 0.0
2017-Nov-07 23:30N 40°38' W 074°12'0 0.0
2017-Nov-07 23:00N 40°38' W 074°12'0 0.0
2017-Nov-07 22:30N 40°38' W 074°12'0 0.0
2017-Nov-07 22:00N 40°38' W 074°12'0 0.0
2017-Nov-07 21:30N 40°38' W 074°12'0 0.0
2017-Nov-07 21:00N 40°38' W 074°12'0 0.0
2017-Nov-07 20:30N 40°38' W 074°12'0 0.0
2017-Nov-07 20:00N 40°38' W 074°12'0 0.0
2017-Nov-07 19:30N 40°38' W 074°12'0 0.0
2017-Nov-07 19:00N 40°38' W 074°12'0 0.0
2017-Nov-07 18:30N 40°38' W 074°12'1 1.2
2017-Nov-07 18:00N 40°39' W 074°11'3 6.7
2017-Nov-07 17:30N 40°39' W 074°07'  
Track history (hours):
 
Tides and Currents Weather Stations Pressure Air Temp Water Temp Dewpoint Dewpoint Depression Visibility Wind Speed Wind Dir Waves Ship Positions

Austin Reinauer

Owner: REINAUER TRANSPORTATION CO. LLC, STATEN ISLAND, NY. More information available from US FCC via Universal Licensing System and Coast Guard Vessel Documentation Center.

Last reported at 2017-Nov-17 17:06 UTC. Time now 2017-Nov-18 01:07 UTC.
Position N 41°40' W 071°12'.

Length 33 m; draft 6.7 m.

Type: . MMSI: 366739920.

Date/timePositionNaut miles runAvg speedWind from/ knotsBaromVisibWave heightAir tempDewpointWater temp
2017-Nov-17 17:06N 41°40' W 071°12'0 0.0
2017-Nov-17 16:59N 41°40' W 071°12'0 0.0
2017-Nov-17 16:30N 41°40' W 071°12'0 0.0
2017-Nov-17 16:00N 41°40' W 071°12'0 0.0
2017-Nov-17 15:30N 41°40' W 071°12'0 0.0
2017-Nov-17 15:00N 41°40' W 071°12'0 0.0
2017-Nov-17 14:30N 41°40' W 071°12'0 0.0
2017-Nov-17 13:59N 41°40' W 071°12'0 0.0
2017-Nov-17 13:30N 41°40' W 071°12'0 0.0
2017-Nov-17 13:00N 41°40' W 071°12'0 0.0
2017-Nov-17 12:30N 41°40' W 071°12'0 0.0
2017-Nov-17 12:00N 41°40' W 071°12'0 0.0
2017-Nov-17 11:30N 41°40' W 071°12'0 0.0
2017-Nov-17 11:00N 41°40' W 071°12'1 0.1
2017-Nov-17 04:22N 41°40' W 071°13'46 6.7
2017-Nov-16 21:31N 41°14' W 072°04'0 9.2
2017-Nov-16 21:29N 41°14' W 072°05'4 9.1
2017-Nov-16 21:00N 41°14' W 072°10'510.1
2017-Nov-16 20:30N 41°12' W 072°17'510.5
2017-Nov-16 20:00N 41°11' W 072°23'510.3
2017-Nov-16 19:30N 41°09' W 072°30'56 9.3
2017-Nov-16 13:29N 40°54' W 073°41'4 8.4
2017-Nov-16 13:00N 40°51' W 073°45'4 7.7
2017-Nov-16 12:30N 40°48' W 073°48'4 8.7
2017-Nov-16 12:00N 40°48' W 073°54'5 9.8
2017-Nov-16 11:30N 40°45' W 073°58'4 8.1
2017-Nov-16 11:00N 40°42' W 074°02'3 6.8
2017-Nov-16 10:30N 40°39' W 074°05'3 5.4
2017-Nov-16 10:00N 40°39' W 074°08'2 3.0
2017-Nov-16 09:30N 40°39' W 074°10'3 5.9
2017-Nov-16 09:00N 40°36' W 074°12'4 6.6
2017-Nov-16 08:24N 40°33' W 074°15'0 0.9
2017-Nov-16 07:54N 40°33' W 074°15'0 0.6
2017-Nov-16 07:28N 40°33' W 074°15'0 0.0
2017-Nov-16 01:21N 40°33' W 074°15'0 0.0
2017-Nov-16 01:00N 40°33' W 074°15'0 0.0
2017-Nov-16 00:30N 40°33' W 074°15'0 0.0
2017-Nov-15 23:57N 40°33' W 074°15'2 3.7
2017-Nov-15 23:30N 40°34' W 074°13'4 8.9
2017-Nov-15 23:00N 40°38' W 074°12'3 1.6
2017-Nov-15 20:56N 40°38' W 074°08'0 0.0
2017-Nov-15 20:20N 40°38' W 074°08'0 0.0
2017-Nov-15 19:59N 40°38' W 074°08'0 0.0
2017-Nov-15 19:26N 40°38' W 074°08'0 0.1
2017-Nov-15 18:59N 40°38' W 074°08'0 0.1
2017-Nov-15 18:11N 40°38' W 074°08'0 1.0
2017-Nov-15 18:00N 40°39' W 074°08'2 3.3
2017-Nov-15 17:30N 40°39' W 074°10'3 6.8
2017-Nov-15 17:00N 40°36' W 074°12'4 0.9
2017-Nov-15 12:54N 40°33' W 074°15'0 0.1
2017-Nov-15 12:28N 40°33' W 074°15'2 4.6
2017-Nov-15 12:00N 40°34' W 074°13'4 7.6
2017-Nov-15 11:30N 40°38' W 074°12'4 7.6
2017-Nov-15 11:01N 40°39' W 074°07'4 8.6
2017-Nov-15 10:30N 40°41' W 074°02'3 6.9
2017-Nov-15 10:01N 40°43' W 073°58'3 6.7
2017-Nov-15 09:30N 40°46' W 073°57'3 5.3
2017-Nov-15 09:00N 40°48' W 073°54'4 7.6
2017-Nov-15 08:30N 40°48' W 073°49'4 7.2
2017-Nov-15 07:58N 40°51' W 073°46'  
2017-Nov-13 00:58N 41°12' W 072°53'37 2.9
2017-Nov-12 12:16N 40°55' W 073°37'3 8.4
2017-Nov-12 11:58N 40°54' W 073°40'4 8.2
2017-Nov-12 11:30N 40°52' W 073°44'4 8.0
2017-Nov-12 11:00N 40°49' W 073°47'3 6.0
2017-Nov-12 10:30N 40°48' W 073°51'3 6.7
2017-Nov-12 10:00N 40°47' W 073°55'4 7.3
2017-Nov-12 09:31N 40°45' W 073°58'4 7.6
2017-Nov-12 09:00N 40°41' W 074°01'4 8.2
2017-Nov-12 08:30N 40°39' W 074°05'1 2.8
2017-Nov-12 08:01N 40°39' W 074°07'0 0.0
2017-Nov-12 07:30N 40°39' W 074°07'0 0.0
2017-Nov-12 07:01N 40°39' W 074°07'0 0.0
2017-Nov-12 06:30N 40°39' W 074°07'0 0.0
2017-Nov-12 06:01N 40°39' W 074°07'0 0.0
2017-Nov-12 05:30N 40°39' W 074°07'0 0.0
2017-Nov-12 05:00N 40°39' W 074°07'0 0.0
2017-Nov-12 04:30N 40°39' W 074°07'0 0.0
2017-Nov-12 04:00N 40°39' W 074°07'0 0.0
2017-Nov-12 03:30N 40°39' W 074°07'0 0.0
2017-Nov-12 03:00N 40°39' W 074°07'0 0.0
2017-Nov-12 02:30N 40°39' W 074°07'0 0.0
2017-Nov-12 02:00N 40°39' W 074°07'0 0.0
2017-Nov-12 01:30N 40°39' W 074°07'0 0.0
2017-Nov-12 01:00N 40°39' W 074°07'0 0.0
2017-Nov-12 00:30N 40°39' W 074°07'0 0.0
2017-Nov-12 00:01N 40°39' W 074°07'0 0.0
2017-Nov-11 23:30N 40°39' W 074°07'0 0.0
2017-Nov-11 23:00N 40°39' W 074°07'0 0.0
2017-Nov-11 22:30N 40°39' W 074°07'0 0.0
2017-Nov-11 22:00N 40°39' W 074°07'0 0.0
2017-Nov-11 21:30N 40°39' W 074°07'0 0.0
2017-Nov-11 21:00N 40°39' W 074°07'0 0.0
2017-Nov-11 20:30N 40°39' W 074°07'0 0.0
2017-Nov-11 20:01N 40°39' W 074°07'0 0.0
2017-Nov-11 19:30N 40°39' W 074°07'0 0.0
2017-Nov-11 19:00N 40°39' W 074°07'0 0.0
2017-Nov-11 18:30N 40°39' W 074°07'0 0.0
2017-Nov-11 18:00N 40°39' W 074°07'0 0.0
2017-Nov-11 17:30N 40°39' W 074°07'0 0.0
2017-Nov-11 17:00N 40°39' W 074°07'1 1.4
2017-Nov-11 16:30N 40°38' W 074°08'2 4.9
2017-Nov-11 16:00N 40°39' W 074°05'3 5.9
2017-Nov-11 15:30N 40°40' W 074°01'0 0.0
2017-Nov-11 15:00N 40°40' W 074°01'0 0.0
2017-Nov-11 14:31N 40°40' W 074°01'0 0.0
2017-Nov-11 14:01N 40°40' W 074°01'0 0.0
2017-Nov-11 13:30N 40°40' W 074°01'0 0.0
2017-Nov-11 13:01N 40°40' W 074°01'0 0.0
2017-Nov-11 12:31N 40°40' W 074°01'0 0.0
2017-Nov-11 12:00N 40°40' W 074°01'0 0.0
2017-Nov-11 11:30N 40°40' W 074°01'3 5.9
2017-Nov-11 11:01N 40°39' W 074°05'2 3.7
2017-Nov-11 10:30N 40°39' W 074°07'0 0.0
2017-Nov-11 10:01N 40°39' W 074°07'0 0.0
2017-Nov-11 09:30N 40°39' W 074°07'0 0.0
2017-Nov-11 09:00N 40°39' W 074°07'0 0.0
2017-Nov-11 08:30N 40°39' W 074°07'0 0.0
2017-Nov-11 08:00N 40°39' W 074°07'0 0.0
2017-Nov-11 07:30N 40°39' W 074°07'0 0.0
2017-Nov-11 07:00N 40°39' W 074°07'0 0.0
2017-Nov-11 06:30N 40°39' W 074°07'0 0.0
2017-Nov-11 06:00N 40°39' W 074°07'0 0.0
2017-Nov-11 05:31N 40°39' W 074°07'0 0.0
2017-Nov-11 05:00N 40°39' W 074°07'1 1.3
2017-Nov-11 04:30N 40°38' W 074°08'0 0.0
2017-Nov-11 04:00N 40°38' W 074°08'0 0.0
2017-Nov-11 03:30N 40°38' W 074°08'0 0.0
2017-Nov-11 03:00N 40°38' W 074°08'0 0.0
2017-Nov-11 02:30N 40°38' W 074°08'1 1.4
2017-Nov-11 02:01N 40°39' W 074°07'0 0.0
2017-Nov-11 01:31N 40°39' W 074°07'0 0.0
2017-Nov-11 01:00N 40°39' W 074°07'0 0.7
2017-Nov-11 00:30N 40°39' W 074°07'3 5.2
2017-Nov-11 00:00N 40°38' W 074°03'1 1.6
2017-Nov-10 23:30N 40°39' W 074°02'3 5.6
2017-Nov-10 23:01N 40°41' W 074°01'5 9.7
2017-Nov-10 22:30N 40°45' W 073°58'5 9.4
2017-Nov-10 22:00N 40°48' W 073°52'4 8.5
2017-Nov-10 21:30N 40°49' W 073°47'10 0.3
2017-Nov-09 08:18N 40°55' W 073°37'3 8.2
2017-Nov-09 07:57N 40°54' W 073°41'4 8.1
2017-Nov-09 07:30N 40°52' W 073°45'4 7.4
2017-Nov-09 06:58N 40°48' W 073°47'4 7.6
2017-Nov-09 06:30N 40°48' W 073°52'4 7.5
2017-Nov-09 06:00N 40°47' W 073°56'4 9.0
2017-Nov-09 05:30N 40°43' W 073°59'4 8.6
2017-Nov-09 05:00N 40°40' W 074°03'1 2.9
2017-Nov-09 04:30N 40°38' W 074°03'0 0.3
2017-Nov-09 04:00N 40°38' W 074°03'0 0.7
2017-Nov-09 03:30N 40°39' W 074°03'2 4.3
2017-Nov-09 03:00N 40°39' W 074°06'2 4.5
2017-Nov-09 02:30N 40°39' W 074°08'2 4.3
2017-Nov-09 02:00N 40°39' W 074°11'3 5.2
2017-Nov-09 01:30N 40°36' W 074°12'4 5.2
2017-Nov-09 00:43N 40°33' W 074°15'0 1.0
2017-Nov-09 00:30N 40°33' W 074°15'0 0.0
2017-Nov-09 00:00N 40°33' W 074°15'0 0.0
2017-Nov-08 21:24N 40°33' W 074°15'0 0.1
2017-Nov-08 20:56N 40°33' W 074°15'0 0.1
2017-Nov-08 18:44N 40°33' W 074°15'0 0.0
2017-Nov-08 18:26N 40°33' W 074°15'0 0.2
2017-Nov-08 16:58N 40°33' W 074°15'0 0.0
2017-Nov-08 14:24N 40°33' W 074°15'0 0.0
2017-Nov-08 06:27N 40°33' W 074°15'0 0.1
2017-Nov-08 05:59N 40°33' W 074°15'0 0.1
2017-Nov-08 05:12N 40°33' W 074°15'0 0.3
2017-Nov-08 05:00N 40°33' W 074°15'2 3.4
2017-Nov-08 04:30N 40°34' W 074°13'4 7.3
2017-Nov-08 04:00N 40°37' W 074°12'1 2.7
2017-Nov-08 03:30N 40°38' W 074°12'0 0.0
2017-Nov-08 03:00N 40°38' W 074°12'0 0.0
2017-Nov-08 02:30N 40°38' W 074°12'0 0.0
2017-Nov-08 02:00N 40°38' W 074°12'0 0.0
2017-Nov-08 01:30N 40°38' W 074°12'0 0.0
2017-Nov-08 01:00N 40°38' W 074°12'0 0.0
2017-Nov-08 00:30N 40°38' W 074°12'0 0.0
2017-Nov-08 00:00N 40°38' W 074°12'0 0.0
2017-Nov-07 23:30N 40°38' W 074°12'0 0.0
2017-Nov-07 23:00N 40°38' W 074°12'0 0.0
2017-Nov-07 22:30N 40°38' W 074°12'0 0.0
2017-Nov-07 22:00N 40°38' W 074°12'0 0.0
2017-Nov-07 21:30N 40°38' W 074°12'0 0.0
2017-Nov-07 21:00N 40°38' W 074°12'0 0.0
2017-Nov-07 20:30N 40°38' W 074°12'0 0.0
2017-Nov-07 20:00N 40°38' W 074°12'0 0.0
2017-Nov-07 19:30N 40°38' W 074°12'0 0.0
2017-Nov-07 19:00N 40°38' W 074°12'0 0.0
2017-Nov-07 18:30N 40°38' W 074°12'1 1.2
2017-Nov-07 18:00N 40°39' W 074°11'3 6.7
2017-Nov-07 17:30N 40°39' W 074°07'  

Dump ship's entire track history